Íslenskir flugvellir

Veldu flugvelli í þeirri röð sem þeir eiga að birtast og styddu á hnappinn

Uppfært síðast 02.06.2020 - kl. 09:42

SIGMET síðustu 6 klst.

Engin SIGMET skeyti bárust síðustu 6 klst.

Vopnafjörður

METAR síðustu 3 klst

TímiSkeyti
2020-06-02 09.00METAR BIVO 020900Z 22010KT 9999 BKN050 12/04 Q1025
2020-06-02 08.00METAR BIVO 020800Z 22010KT 9999 BKN050 10/04 Q1025
2020-06-02 07.00METAR BIVO 020700Z 25005KT 9999 BKN050 10/04 Q1025

TAF

TAFBIVO2020-06-02 08.10Z02081723008KT 9999 BKN050

Allur vindur er réttvísandi bæði í Metar og frá sjálfvirkum veðurstöðvum




Aðrir tengdir vefir



Þetta vefsvæði byggir á Eplica